Time;durP1;ratioP1;P1;durP2;ratioP2;P2;SDS_P1;SDS_P2;PMS_P1;PMS_P2;Temp;Humidity;BMP_temperature;BMP_pressure;BME280_temperature;BME280_humidity;BME280_pressure;Samples;Min_cycle;Max_cycle;Signal;HPM_P1;HPM_P2
2022/03/17 00:00:22;;;;;;;24.80;15.45;;;;;;;4.13;77.41;95420.03;5050291;28;20036;-69
2022/03/17 00:02:47;;;;;;;19.73;14.43;;;;;;;4.26;76.74;95413.38;5044009;28;20423;-69
2022/03/17 00:05:12;;;;;;;22.48;14.27;;;;;;;4.19;76.56;95406.88;5039641;28;20044;-69
2022/03/17 00:07:39;;;;;;;21.20;15.02;;;;;;;4.32;76.14;95412.25;5015079;28;20030;-69
2022/03/17 00:10:09;;;;;;;24.33;15.60;;;;;;;4.20;76.52;95399.06;5021513;28;20025;-69
2022/03/17 00:12:34;;;;;;;23.88;15.75;;;;;;;4.08;76.97;95404.00;5025797;28;20498;-68
2022/03/17 00:15:00;;;;;;;24.65;17.33;;;;;;;4.12;76.93;95408.06;5015837;28;20034;-69
2022/03/17 00:17:26;;;;;;;26.02;18.52;;;;;;;4.12;77.28;95410.63;5015175;28;20032;-69
2022/03/17 00:19:52;;;;;;;29.27;19.02;;;;;;;4.09;77.60;95408.22;5032768;28;20284;-69
2022/03/17 00:22:18;;;;;;;26.85;17.77;;;;;;;4.17;77.00;95416.41;5034947;28;20044;-69
2022/03/17 00:24:43;;;;;;;28.60;18.63;;;;;;;4.14;77.15;95408.84;5051503;28;20075;-69
2022/03/17 00:27:09;;;;;;;25.40;16.85;;;;;;;4.21;76.94;95410.22;5020217;28;20029;-69
2022/03/17 00:29:35;;;;;;;22.85;16.38;;;;;;;4.31;76.63;95397.72;5019637;28;20030;-69
2022/03/17 00:32:01;;;;;;;23.00;16.60;;;;;;;4.27;76.67;95406.53;5032691;28;20057;-69
2022/03/17 00:34:26;;;;;;;32.40;16.13;;;;;;;4.26;76.39;95400.50;5056690;28;20076;-69
2022/03/17 00:36:52;;;;;;;25.10;17.25;;;;;;;4.23;76.18;95398.09;5037459;28;20040;-69
2022/03/17 00:39:17;;;;;;;32.30;17.30;;;;;;;4.27;76.80;95412.50;5040626;28;20021;-69
2022/03/17 00:41:43;;;;;;;30.00;19.40;;;;;;;4.31;76.21;95410.59;5025420;28;20447;-69
2022/03/17 00:44:10;;;;;;;32.65;20.45;;;;;;;4.30;76.55;95414.91;5031695;28;20121;-69
2022/03/17 00:46:36;;;;;;;28.00;17.30;;;;;;;4.33;76.37;95408.78;5045867;28;20052;-70
2022/03/17 00:49:02;;;;;;;28.20;19.33;;;;;;;4.56;75.71;95420.50;5037970;28;20026;-69
2022/03/17 00:51:27;;;;;;;29.27;18.65;;;;;;;4.38;76.32;95407.66;5049276;28;20029;-68
2022/03/17 00:53:53;;;;;;;29.30;19.52;;;;;;;4.46;76.09;95420.16;5040074;28;20453;-69
2022/03/17 00:56:18;;;;;;;32.90;18.98;;;;;;;4.48;75.97;95424.31;5034793;28;20040;-69
2022/03/17 00:58:48;;;;;;;26.77;18.58;;;;;;;4.46;75.57;95428.69;5034282;28;20033;-69
2022/03/17 01:01:16;;;;;;;26.48;17.17;;;;;;;4.53;75.88;95438.69;5032520;28;20033;-69
2022/03/17 01:03:42;;;;;;;35.40;23.70;;;;;;;4.51;75.84;95437.91;5037521;28;20099;-69
2022/03/17 01:06:08;;;;;;;46.42;27.75;;;;;;;4.57;76.14;95442.75;5039821;28;20030;-69
2022/03/17 01:08:33;;;;;;;47.42;29.70;;;;;;;4.59;75.81;95453.81;5031124;28;20029;-69
2022/03/17 01:10:59;;;;;;;44.60;28.65;;;;;;;4.65;76.22;95459.50;5042068;28;20076;-69
2022/03/17 01:13:24;;;;;;;43.67;26.85;;;;;;;4.58;76.38;95450.41;5032031;28;20507;-69
2022/03/17 01:15:50;;;;;;;47.53;27.10;;;;;;;4.51;76.51;95454.19;5032420;28;20487;-69
2022/03/17 01:18:15;;;;;;;38.38;25.60;;;;;;;4.48;77.10;95459.47;5032957;28;20041;-69
2022/03/17 01:20:41;;;;;;;43.42;24.35;;;;;;;4.38;77.26;95459.09;5032047;28;20037;-69
2022/03/17 01:23:07;;;;;;;50.53;27.15;;;;;;;4.48;77.24;95460.34;5032866;28;20047;-69
2022/03/17 01:25:32;;;;;;;47.70;26.27;;;;;;;4.53;77.32;95461.84;5014347;28;20124;-69
2022/03/17 01:27:58;;;;;;;50.53;26.60;;;;;;;4.47;77.28;95458.66;5035727;28;20037;-69
2022/03/17 01:30:23;;;;;;;37.47;23.13;;;;;;;4.57;77.31;95459.06;5014337;28;20040;-69
2022/03/17 01:32:49;;;;;;;36.83;21.73;;;;;;;4.70;76.51;95464.41;5037999;28;20476;-69
2022/03/17 01:35:14;;;;;;;32.95;22.10;;;;;;;4.55;76.61;95480.63;5048688;28;20040;-69
2022/03/17 01:37:40;;;;;;;31.40;20.10;;;;;;;4.42;76.63;95465.75;5050100;28;20025;-69
2022/03/17 01:40:09;;;;;;;29.20;19.20;;;;;;;4.43;77.01;95477.72;5033758;28;20094;-69
2022/03/17 01:42:34;;;;;;;23.40;13.98;;;;;;;4.51;75.74;95471.38;5050952;28;20525;-69
2022/03/17 01:45:00;;;;;;;21.63;12.80;;;;;;;4.50;75.11;95472.28;5013496;28;20041;-69
2022/03/17 01:47:28;;;;;;;17.55;10.80;;;;;;;4.54;74.27;95476.34;5014916;28;20025;-69
2022/03/17 01:50:03;;;;;;;18.77;11.13;;;;;;;4.51;74.40;95479.09;5030992;28;20083;-69
2022/03/17 01:52:28;;;;;;;17.42;10.63;;;;;;;4.44;75.39;95479.38;5058137;28;20120;-69
2022/03/17 01:54:54;;;;;;;14.90;10.50;;;;;;;4.42;75.28;95485.50;4997386;28;20168;-69
2022/03/17 01:57:20;;;;;;;17.60;11.90;;;;;;;4.42;74.54;95488.06;5045896;28;20484;-69
2022/03/17 01:59:46;;;;;;;16.88;11.23;;;;;;;4.46;74.92;95493.00;5042072;28;20041;-69
2022/03/17 02:02:12;;;;;;;14.70;9.05;;;;;;;4.44;75.20;95497.38;5018487;28;20407;-69
2022/03/17 02:04:38;;;;;;;13.50;9.32;;;;;;;4.41;75.06;95509.56;5049679;28;20128;-69
2022/03/17 02:07:05;;;;;;;13.35;9.90;;;;;;;4.43;75.31;95503.47;5049450;28;20116;-69
2022/03/17 02:09:31;;;;;;;11.80;8.40;;;;;;;4.29;75.02;95490.41;5002600;28;20033;-69
2022/03/17 02:14:54;;;;;;;11.02;8.15;;;;;;;4.29;75.20;95495.56;5047891;28;20143;-69
2022/03/17 02:17:20;;;;;;;14.07;8.70;;;;;;;4.14;75.37;95486.81;5049761;28;20035;-69
2022/03/17 02:19:45;;;;;;;12.27;9.05;;;;;;;4.15;75.73;95498.78;5019006;28;20080;-69
2022/03/17 02:22:14;;;;;;;12.48;8.38;;;;;;;4.17;75.20;95496.94;5029614;28;20037;-69
2022/03/17 02:27:25;;;;;;;16.40;11.02;;;;;;;4.08;75.57;95496.56;5031151;28;20036;-69
2022/03/17 02:29:51;;;;;;;12.88;8.95;;;;;;;4.10;76.18;95500.72;5060921;28;20041;-69
2022/03/17 02:32:17;;;;;;;14.70;10.20;;;;;;;4.06;75.66;95493.22;5027292;28;20034;-69
2022/03/17 02:34:44;;;;;;;13.27;8.90;;;;;;;4.06;75.74;95488.06;5039851;28;20040;-68
2022/03/17 02:37:09;;;;;;;13.82;9.98;;;;;;;4.01;75.51;95484.00;5021850;28;20029;-69
2022/03/17 02:39:35;;;;;;;14.20;11.05;;;;;;;3.88;75.96;95490.59;5029124;28;20055;-69
2022/03/17 02:42:00;;;;;;;13.10;10.30;;;;;;;3.84;76.46;95496.75;5029499;28;20029;-69
2022/03/17 02:44:26;;;;;;;13.32;10.15;;;;;;;3.78;76.83;95509.91;5012965;28;20036;-69
2022/03/17 02:46:51;;;;;;;13.23;9.93;;;;;;;3.79;76.39;95493.59;5046615;28;20452;-69
2022/03/17 02:49:18;;;;;;;14.82;10.20;;;;;;;3.84;76.74;95495.94;5012717;28;20033;-69
2022/03/17 02:51:43;;;;;;;14.20;10.18;;;;;;;3.73;76.52;95489.56;5042309;28;20060;-69
2022/03/17 02:54:08;;;;;;;14.02;9.25;;;;;;;3.72;76.82;95503.31;5046811;28;20519;-69
2022/03/17 02:56:34;;;;;;;12.75;8.50;;;;;;;3.71;76.56;95493.09;5029664;28;20034;-69
2022/03/17 02:58:59;;;;;;;11.18;8.05;;;;;;;3.94;75.81;95515.19;5030199;28;20037;-69
2022/03/17 03:01:25;;;;;;;11.15;7.88;;;;;;;3.93;76.01;95519.50;5047280;28;20112;-69
2022/03/17 03:03:50;;;;;;;11.68;7.85;;;;;;;3.88;75.53;95515.47;5024213;28;20029;-69
2022/03/17 03:06:15;;;;;;;13.02;9.05;;;;;;;3.81;75.82;95520.03;5029472;28;20036;-69
2022/03/17 03:08:41;;;;;;;12.50;8.75;;;;;;;3.78;76.02;95527.91;5032346;28;20033;-69
2022/03/17 03:11:06;;;;;;;12.98;9.02;;;;;;;3.72;76.32;95526.44;5052983;28;20094;-69
2022/03/17 03:13:32;;;;;;;13.95;8.98;;;;;;;3.75;76.11;95526.28;5034668;28;20036;-69
2022/03/17 03:15:57;;;;;;;12.27;8.63;;;;;;;3.75;76.21;95525.47;5031386;28;20091;-69
2022/03/17 03:18:22;;;;;;;12.98;9.38;;;;;;;3.72;76.55;95530.75;5048335;28;20041;-69
2022/03/17 03:20:48;;;;;;;12.25;8.85;;;;;;;3.73;76.71;95524.69;5052123;28;20044;-69
2022/03/17 03:23:13;;;;;;;11.75;7.72;;;;;;;3.81;76.27;95530.31;5052649;28;20028;-69
2022/03/17 03:25:39;;;;;;;11.65;7.82;;;;;;;3.88;75.71;95534.31;5044176;28;20034;-69
2022/03/17 03:28:06;;;;;;;10.40;8.05;;;;;;;3.75;75.74;95533.16;5032952;28;20063;-69
2022/03/17 03:30:31;;;;;;;11.02;8.40;;;;;;;3.73;76.10;95532.41;5017609;28;20466;-69
2022/03/17 03:32:57;;;;;;;12.35;8.50;;;;;;;3.65;76.13;95530.19;5017235;28;20026;-69
2022/03/17 03:38:06;;;;;;;11.82;7.07;;;;;;;3.67;75.54;95541.22;5034087;28;20088;-69
2022/03/17 03:40:31;;;;;;;10.77;7.45;;;;;;;3.67;76.13;95545.53;5033893;28;20483;-69
2022/03/17 03:42:57;;;;;;;11.20;7.55;;;;;;;3.53;76.13;95546.13;5036793;28;20108;-69
2022/03/17 03:45:22;;;;;;;10.15;6.88;;;;;;;3.64;75.99;95543.09;5019493;28;20048;-69
2022/03/17 03:47:48;;;;;;;10.27;7.10;;;;;;;3.60;76.29;95537.25;5051850;28;20029;-69
2022/03/17 03:50:13;;;;;;;11.40;7.90;;;;;;;3.64;75.95;95540.53;5015720;28;20045;-69
2022/03/17 03:52:39;;;;;;;11.52;8.05;;;;;;;3.53;76.15;95544.38;5048563;28;20418;-69
2022/03/17 03:55:04;;;;;;;12.45;8.10;;;;;;;3.56;76.50;95554.53;5041540;28;20034;-69
2022/03/17 03:57:30;;;;;;;10.82;7.85;;;;;;;3.65;76.17;95547.31;5034504;28;20091;-69
2022/03/17 03:59:55;;;;;;;11.55;8.13;;;;;;;3.67;75.99;95558.38;5029335;28;20029;-69
2022/03/17 04:02:21;;;;;;;12.23;8.38;;;;;;;3.66;75.91;95556.72;5019636;28;20449;-69
2022/03/17 04:04:46;;;;;;;13.00;8.50;;;;;;;3.69;75.95;95566.88;5049951;28;20044;-69
2022/03/17 04:07:12;;;;;;;12.30;9.18;;;;;;;3.71;76.19;95575.34;5040820;28;20237;-69
2022/03/17 04:09:40;;;;;;;11.73;8.52;;;;;;;3.67;76.01;95573.78;5032660;28;20844;-69
2022/03/17 04:12:06;;;;;;;13.88;10.10;;;;;;;3.73;75.87;95573.53;5015674;28;20539;-69
2022/03/17 04:14:32;;;;;;;13.63;10.15;;;;;;;3.68;75.67;95570.34;5016642;28;20037;-69
2022/03/17 04:16:57;;;;;;;16.27;11.05;;;;;;;3.63;76.21;95577.41;5045321;28;20557;-69
2022/03/17 04:19:23;;;;;;;14.70;10.77;;;;;;;3.70;76.09;95583.94;5048651;28;20082;-69
2022/03/17 04:21:49;;;;;;;16.13;9.93;;;;;;;3.71;75.79;95585.63;5030476;28;20036;-69
2022/03/17 04:24:15;;;;;;;15.48;11.27;;;;;;;3.72;75.35;95592.41;5000703;28;20022;-69
2022/03/17 04:26:40;;;;;;;24.13;15.75;;;;;;;3.66;75.70;95605.53;5042212;28;20039;-69
2022/03/17 04:29:06;;;;;;;24.20;15.63;;;;;;;3.66;75.27;95613.25;5017439;28;20044;-69
2022/03/17 04:31:33;;;;;;;22.10;14.25;;;;;;;3.68;75.14;95606.31;5046877;28;20091;-69
2022/03/17 04:33:58;;;;;;;24.17;15.60;;;;;;;3.76;74.82;95617.94;5015502;28;20030;-69
2022/03/17 04:36:23;;;;;;;31.83;22.67;;;;;;;3.74;75.18;95621.47;5015409;28;20167;-69
2022/03/17 04:38:49;;;;;;;24.33;18.25;;;;;;;3.71;74.79;95619.03;5031868;28;20407;-69
2022/03/17 04:41:14;;;;;;;21.35;15.00;;;;;;;3.72;74.50;95624.09;5061095;28;20033;-69
2022/03/17 04:43:40;;;;;;;21.45;14.35;;;;;;;3.73;74.41;95625.78;5050379;28;20395;-69
2022/03/17 04:46:08;;;;;;;20.73;13.18;;;;;;;3.77;74.39;95629.03;5035047;28;20037;-69
2022/03/17 04:48:34;;;;;;;20.30;13.15;;;;;;;3.70;75.02;95630.19;5051496;28;20033;-69
2022/03/17 04:50:59;;;;;;;20.35;14.48;;;;;;;3.71;74.91;95626.75;5051543;28;20563;-69
2022/03/17 04:53:28;;;;;;;20.73;14.38;;;;;;;3.69;74.34;95631.09;5034112;28;20040;-69
2022/03/17 04:55:53;;;;;;;26.83;18.10;;;;;;;3.67;73.62;95631.16;5071253;28;20090;-69
2022/03/17 04:58:19;;;;;;;26.02;16.75;;;;;;;3.68;73.25;95642.31;5072505;28;20029;-69
2022/03/17 05:00:45;;;;;;;25.17;18.25;;;;;;;3.74;73.33;95639.47;5072669;28;20114;-69
2022/03/17 05:03:11;;;;;;;26.02;17.75;;;;;;;3.71;73.91;95631.88;5071139;28;20456;-69
2022/03/17 05:05:37;;;;;;;33.10;26.30;;;;;;;3.69;73.22;95644.78;5071147;28;20029;-69
2022/03/17 05:08:03;;;;;;;34.33;24.42;;;;;;;3.61;73.24;95654.56;5053367;28;20052;-69
2022/03/17 05:10:28;;;;;;;29.75;21.08;;;;;;;3.66;72.61;95654.38;5035822;28;20083;-69
2022/03/17 05:12:57;;;;;;;22.48;16.50;;;;;;;3.45;72.87;95620.13;5030761;28;20484;-69
2022/03/17 05:15:24;;;;;;;19.67;12.63;;;;;;;3.63;71.85;95660.47;5022645;28;20037;-69
2022/03/17 05:17:50;;;;;;;18.48;12.13;;;;;;;3.49;72.11;95653.34;5006203;28;20534;-70
2022/03/17 05:20:15;;;;;;;19.73;13.07;;;;;;;3.43;71.93;95653.59;5024964;28;20040;-71
2022/03/17 05:22:41;;;;;;;18.75;12.43;;;;;;;3.40;72.75;95664.00;5011926;28;20491;-70
2022/03/17 05:25:08;;;;;;;18.80;12.43;;;;;;;3.35;72.43;95666.75;5028724;28;20063;-70
2022/03/17 05:27:43;;;;;;;19.15;12.40;;;;;;;3.31;72.79;95666.94;5047895;28;20022;-70
2022/03/17 05:30:10;;;;;;;18.83;12.27;;;;;;;3.25;73.45;95662.88;5046994;28;20044;-69
2022/03/17 05:32:35;;;;;;;20.35;12.85;;;;;;;3.24;73.97;95668.09;5030779;28;20083;-69
2022/03/17 05:35:01;;;;;;;20.08;13.50;;;;;;;3.27;74.47;95675.66;5031972;28;20026;-70
2022/03/17 05:37:26;;;;;;;20.30;13.18;;;;;;;3.27;74.74;95683.38;5034344;28;20029;-69
2022/03/17 05:39:52;;;;;;;27.67;20.08;;;;;;;3.23;74.96;95677.53;5030267;28;20461;-69
2022/03/17 05:42:17;;;;;;;26.20;16.25;;;;;;;3.14;75.24;95685.59;5036640;28;20469;-69
2022/03/17 05:44:43;;;;;;;22.15;13.30;;;;;;;3.20;74.48;95687.06;5041532;28;20040;-69
2022/03/17 05:47:08;;;;;;;22.38;14.02;;;;;;;3.20;74.51;95695.59;5037814;28;20453;-69
2022/03/17 05:49:34;;;;;;;19.50;11.80;;;;;;;3.18;74.34;95699.16;5021116;28;20033;-69
2022/03/17 05:51:59;;;;;;;18.73;12.30;;;;;;;3.23;73.60;95704.91;5030158;28;20025;-69
2022/03/17 05:54:25;;;;;;;17.80;11.98;;;;;;;3.30;73.60;95716.63;5046791;28;20021;-69
2022/03/17 05:56:50;;;;;;;16.05;10.68;;;;;;;3.10;73.85;95715.69;5014658;28;20029;-68
2022/03/17 05:59:15;;;;;;;16.23;11.38;;;;;;;3.07;73.44;95722.69;5025217;28;20076;-69
2022/03/17 06:01:41;;;;;;;16.73;10.45;;;;;;;3.05;72.69;95701.34;5039019;28;20092;-69
2022/03/17 06:04:06;;;;;;;17.23;10.70;;;;;;;3.15;72.71;95720.66;5033051;28;20428;-68
2022/03/17 06:06:32;;;;;;;15.85;11.02;;;;;;;3.20;72.22;95728.97;5040228;28;20037;-69
2022/03/17 06:08:57;;;;;;;17.02;11.00;;;;;;;3.23;72.56;95730.59;5031327;28;20033;-69
2022/03/17 06:11:23;;;;;;;20.50;12.70;;;;;;;3.19;72.26;95731.63;5036833;28;20266;-69
2022/03/17 06:13:48;;;;;;;27.20;14.93;;;;;;;3.26;72.93;95725.34;5029924;28;20028;-69
2022/03/17 06:16:14;;;;;;;22.90;12.52;;;;;;;3.29;72.50;95732.94;5033659;28;20029;-68
2022/03/17 06:18:40;;;;;;;17.60;11.50;;;;;;;3.32;71.99;95737.97;5013448;28;20057;-69
2022/03/17 06:21:06;;;;;;;17.08;10.73;;;;;;;3.32;71.99;95732.81;5045835;28;20086;-68
2022/03/17 06:23:31;;;;;;;14.55;10.50;;;;;;;3.12;73.17;95737.00;5040858;28;20059;-69
2022/03/17 06:25:57;;;;;;;18.02;9.40;;;;;;;3.18;72.29;95740.25;5029893;28;20042;-68
2022/03/17 06:28:22;;;;;;;17.45;9.25;;;;;;;3.10;72.55;95751.63;5035323;28;20033;-69
2022/03/17 06:30:48;;;;;;;13.60;9.65;;;;;;;3.09;72.95;95752.53;5018737;28;20474;-69
2022/03/17 06:33:14;;;;;;;15.68;9.75;;;;;;;3.11;73.04;95755.84;5012506;28;20116;-69
2022/03/17 06:35:39;;;;;;;12.55;9.15;;;;;;;3.20;72.42;95749.53;5043075;28;20025;-68
2022/03/17 06:38:05;;;;;;;16.58;12.80;;;;;;;3.13;72.66;95759.22;5009128;28;20041;-70
2022/03/17 06:40:31;;;;;;;14.52;9.70;;;;;;;3.24;72.64;95758.81;5029390;28;20037;-70
2022/03/17 06:42:57;;;;;;;14.35;9.50;;;;;;;3.20;73.20;95764.09;5040651;28;20025;-70
2022/03/17 06:45:23;;;;;;;14.48;9.23;;;;;;;3.21;73.66;95765.78;5021221;28;20026;-71
2022/03/17 06:47:48;;;;;;;18.63;12.13;;;;;;;3.16;74.28;95758.25;5019993;28;20025;-69
2022/03/17 06:50:15;;;;;;;16.17;10.02;;;;;;;3.17;73.41;95762.50;5034007;28;20091;-68
2022/03/17 06:52:40;;;;;;;14.55;8.88;;;;;;;3.18;73.10;95771.06;5032977;28;20033;-69
2022/03/17 06:55:06;;;;;;;13.52;9.35;;;;;;;3.14;72.73;95771.16;5030864;28;20499;-69
2022/03/17 06:57:32;;;;;;;11.82;8.55;;;;;;;3.15;72.81;95774.56;5030916;28;20033;-69
2022/03/17 06:59:57;;;;;;;16.27;9.40;;;;;;;3.09;73.49;95775.66;5037133;28;20030;-69
2022/03/17 07:02:23;;;;;;;13.00;8.60;;;;;;;2.93;73.94;95782.25;5042411;28;20090;-69
2022/03/17 07:04:48;;;;;;;12.52;8.82;;;;;;;3.00;73.64;95791.38;5012377;28;20091;-68
2022/03/17 07:07:14;;;;;;;18.15;10.68;;;;;;;2.80;74.14;95788.72;5012143;28;20099;-68
2022/03/17 07:09:41;;;;;;;17.02;11.85;;;;;;;2.77;74.19;95779.41;5031627;28;20036;-69
2022/03/17 07:12:07;;;;;;;17.75;10.75;;;;;;;2.77;74.63;95794.81;5042286;28;20029;-68
2022/03/17 07:14:33;;;;;;;16.90;10.23;;;;;;;2.86;73.92;95796.19;5031480;28;20036;-68
2022/03/17 07:16:59;;;;;;;16.80;11.63;;;;;;;2.88;74.28;95804.69;5030149;28;20533;-68
2022/03/17 07:19:24;;;;;;;16.67;10.60;;;;;;;2.92;74.05;95803.66;5019558;28;20041;-68
2022/03/17 07:21:52;;;;;;;29.40;18.45;;;;;;;2.81;74.13;95798.91;5041992;28;20033;-68
2022/03/17 07:24:17;;;;;;;22.90;16.38;;;;;;;2.83;74.26;95801.44;5034580;28;20465;-68
2022/03/17 07:26:44;;;;;;;23.02;15.82;;;;;;;2.87;74.34;95801.28;5039228;28;20090;-68
2022/03/17 07:29:12;;;;;;;23.02;15.10;;;;;;;2.99;74.31;95802.56;5010153;28;20029;-68
2022/03/17 07:31:38;;;;;;;19.83;11.45;;;;;;;3.05;73.79;95812.59;5027805;28;20110;-68
2022/03/17 07:34:04;;;;;;;15.90;9.77;;;;;;;3.05;73.22;95822.03;5035386;28;20036;-68
2022/03/17 07:36:29;;;;;;;16.85;10.77;;;;;;;2.92;73.85;95811.34;5033275;28;20492;-68
2022/03/17 07:38:55;;;;;;;17.05;10.68;;;;;;;2.84;73.69;95813.38;5041656;28;20029;-68
2022/03/17 07:41:21;;;;;;;15.18;10.45;;;;;;;2.81;73.89;95813.47;5013401;28;20051;-67
2022/03/17 07:43:46;;;;;;;15.88;10.85;;;;;;;2.77;73.98;95817.06;5020485;28;20033;-67
2022/03/17 07:46:12;;;;;;;15.57;10.65;;;;;;;2.76;74.65;95817.94;5043679;28;20038;-67
2022/03/17 07:48:38;;;;;;;37.63;18.52;;;;;;;2.82;74.72;95815.19;5019130;28;20040;-67
2022/03/17 07:51:03;;;;;;;23.75;14.48;;;;;;;2.79;74.47;95817.84;5031926;28;20083;-67
2022/03/17 07:53:29;;;;;;;22.42;14.65;;;;;;;2.73;74.66;95816.34;5047699;28;20033;-67
2022/03/17 07:55:55;;;;;;;21.27;13.48;;;;;;;2.83;74.87;95827.09;5046276;28;20044;-67
2022/03/17 07:58:24;;;;;;;21.70;12.85;;;;;;;2.89;74.28;95826.88;5051993;28;20027;-67
2022/03/17 08:00:56;;;;;;;17.80;12.27;;;;;;;2.88;74.14;95820.09;5045377;28;20036;-67
2022/03/17 08:03:21;;;;;;;26.88;15.90;;;;;;;3.05;73.85;95828.00;5043041;28;20503;-67
2022/03/17 08:05:47;;;;;;;30.45;17.80;;;;;;;2.86;73.56;95824.44;5013080;28;20040;-67
2022/03/17 08:08:16;;;;;;;22.73;15.23;;;;;;;3.00;74.51;95822.19;5033943;28;20403;-68
2022/03/17 08:10:42;;;;;;;19.17;13.00;;;;;;;2.98;74.33;95818.84;5030818;28;20131;-67
2022/03/17 08:13:09;;;;;;;20.58;13.80;;;;;;;3.02;74.63;95822.97;5051708;28;20032;-67
2022/03/17 08:15:36;;;;;;;30.63;16.85;;;;;;;2.97;74.66;95824.88;5033037;28;20431;-67
2022/03/17 08:18:01;;;;;;;25.17;14.88;;;;;;;3.09;74.72;95833.84;5033081;28;20052;-67
2022/03/17 08:20:27;;;;;;;20.20;13.82;;;;;;;3.09;74.35;95824.44;5051870;28;20033;-67
2022/03/17 08:22:52;;;;;;;19.50;13.50;;;;;;;3.13;74.66;95836.25;5030332;28;20033;-67
2022/03/17 08:25:18;;;;;;;20.65;14.73;;;;;;;3.19;74.09;95835.19;5048238;28;20036;-67
2022/03/17 08:27:43;;;;;;;20.02;14.30;;;;;;;3.13;74.14;95831.09;5050754;28;20021;-67
2022/03/17 08:30:10;;;;;;;22.65;14.70;;;;;;;3.09;75.00;95829.56;5049336;28;20033;-67
2022/03/17 08:32:35;;;;;;;21.77;14.63;;;;;;;3.11;74.03;95827.75;5028490;28;20033;-67
2022/03/17 08:35:01;;;;;;;19.77;13.70;;;;;;;3.22;74.71;95834.22;5047060;28;20041;-67
2022/03/17 08:37:26;;;;;;;21.85;14.60;;;;;;;3.09;74.92;95818.44;5043247;28;20025;-67
2022/03/17 08:39:51;;;;;;;26.67;16.42;;;;;;;2.98;75.31;95824.00;5049535;28;20033;-67
2022/03/17 08:42:17;;;;;;;33.33;20.67;;;;;;;2.85;76.24;95817.63;5051147;28;20411;-69
2022/03/17 08:44:42;;;;;;;41.03;24.00;;;;;;;2.81;76.65;95827.16;5019411;28;20035;-68
2022/03/17 08:49:52;;;;;;;23.90;16.42;;;;;;;2.93;76.82;95835.31;5035686;28;20411;-68
2022/03/17 08:52:19;;;;;;;25.85;17.35;;;;;;;2.88;76.66;95830.34;5028171;28;20030;-68
2022/03/17 08:54:45;;;;;;;131.32;47.30;;;;;;;2.84;77.15;95827.06;5040700;28;20471;-68
2022/03/17 08:57:11;;;;;;;90.53;36.85;;;;;;;2.97;76.86;95830.00;5032412;28;20029;-68
2022/03/17 08:59:36;;;;;;;33.40;19.08;;;;;;;3.08;76.26;95827.88;5035211;28;20053;-69
2022/03/17 09:02:04;;;;;;;27.83;17.73;;;;;;;2.97;76.86;95818.91;5027508;28;20033;-68
2022/03/17 09:04:30;;;;;;;52.30;26.63;;;;;;;3.21;76.38;95837.69;5025747;28;20033;-68
2022/03/17 09:06:59;;;;;;;63.75;31.25;;;;;;;3.35;76.22;95843.16;5043163;28;20076;-68
2022/03/17 09:09:29;;;;;;;40.33;23.98;;;;;;;3.25;75.33;95827.25;5037388;28;20060;-68
2022/03/17 09:11:54;;;;;;;35.30;21.95;;;;;;;3.31;75.70;95850.13;5020867;28;20029;-68
2022/03/17 09:14:21;;;;;;;31.85;20.63;;;;;;;3.28;75.45;95846.84;5041962;28;20491;-68
2022/03/17 09:16:46;;;;;;;27.85;18.38;;;;;;;3.34;75.60;95851.72;5050734;28;20040;-68
2022/03/17 09:19:12;;;;;;;49.25;26.85;;;;;;;3.51;75.69;95846.81;5048687;28;20455;-69
2022/03/17 09:21:37;;;;;;;78.30;36.67;;;;;;;3.72;75.82;95860.53;5050525;28;20510;-68
2022/03/17 09:24:03;;;;;;;37.42;22.30;;;;;;;3.92;75.01;95852.03;5047647;28;20033;-68
2022/03/17 09:26:30;;;;;;;33.85;21.63;;;;;;;3.85;75.79;95854.94;5049412;28;20033;-68
2022/03/17 09:28:55;;;;;;;33.95;23.65;;;;;;;3.90;75.42;95858.13;5026334;28;20033;-69
2022/03/17 09:31:22;;;;;;;24.13;17.15;;;;;;;3.91;74.27;95865.78;5020821;28;20045;-68
2022/03/17 09:33:48;;;;;;;122.65;48.72;;;;;;;3.90;73.80;95868.41;5018019;28;20040;-68
2022/03/17 09:36:13;;;;;;;73.82;35.05;;;;;;;4.07;72.92;95867.72;5049683;28;20497;-68
2022/03/17 09:38:39;;;;;;;70.50;33.72;;;;;;;4.14;74.06;95870.00;5045690;28;20488;-68
2022/03/17 09:41:24;;;;;;;40.47;23.15;;;;;;;4.28;73.51;95873.75;5041704;28;20407;-68
2022/03/17 09:43:51;;;;;;;21.25;15.23;;;;;;;4.30;73.04;95870.22;5046837;28;20036;-68
2022/03/17 09:46:17;;;;;;;21.42;14.95;;;;;;;4.40;72.38;95879.25;5022838;28;20068;-68
2022/03/17 09:48:43;;;;;;;23.02;15.68;;;;;;;4.45;71.74;95887.56;5030805;28;20438;-68
2022/03/17 09:51:08;;;;;;;20.45;14.80;;;;;;;4.15;72.60;95881.13;5033213;28;20043;-68
2022/03/17 09:53:33;;;;;;;22.23;15.95;;;;;;;4.00;72.47;95891.13;5043754;28;20040;-68
2022/03/17 09:55:59;;;;;;;14.18;9.10;;;;;;;3.96;70.86;95892.16;5048462;28;20028;-68
2022/03/17 09:58:24;;;;;;;13.60;9.07;;;;;;;3.84;70.86;95884.09;5045912;28;20052;-68
2022/03/17 10:00:52;;;;;;;10.18;7.55;;;;;;;3.80;71.27;95885.94;5014273;28;20038;-68
2022/03/17 10:03:18;;;;;;;11.32;7.05;;;;;;;3.71;71.63;95891.47;5037366;28;20032;-69
2022/03/17 10:05:45;;;;;;;10.77;7.20;;;;;;;3.84;71.88;95894.38;5046657;28;20033;-69
2022/03/17 10:08:10;;;;;;;10.75;6.90;;;;;;;3.86;70.43;95897.72;5030633;28;20476;-69
2022/03/17 10:10:37;;;;;;;8.15;5.65;;;;;;;3.66;70.43;95890.78;5008829;28;20037;-70
2022/03/17 10:13:19;;;;;;;10.52;6.82;;;;;;;3.59;71.88;95897.88;5028409;28;20021;-69
2022/03/17 10:15:46;;;;;;;9.30;7.13;;;;;;;3.55;72.10;95897.16;5030394;28;20214;-69
2022/03/17 10:18:23;;;;;;;12.13;7.25;;;;;;;3.53;71.08;95895.56;5046823;28;20138;-68
2022/03/17 10:21:10;;;;;;;10.45;6.88;;;;;;;3.45;72.13;95902.72;5029333;28;20067;-69
2022/03/17 10:23:47;;;;;;;9.63;6.75;;;;;;;3.53;72.80;95901.53;5030980;28;20238;-69
2022/03/17 10:26:28;;;;;;;9.48;6.53;;;;;;;3.60;71.80;95901.31;5030456;28;20033;-69
2022/03/17 10:28:55;;;;;;;;;;;;;;;3.74;70.66;95897.31;5017102;28;20025;-69
2022/03/17 10:31:20;;;;;;;11.32;7.15;;;;;;;3.61;72.00;95905.53;5045452;28;19921;-69
2022/03/17 10:33:48;;;;;;;9.38;7.22;;;;;;;3.78;70.67;95905.72;5044431;28;20047;-69
2022/03/17 10:36:19;;;;;;;10.77;6.90;;;;;;;3.63;71.30;95902.03;5031907;28;20049;-69
2022/03/17 10:38:45;;;;;;;10.55;7.60;;;;;;;3.44;71.84;95891.59;5047358;28;20112;-69
2022/03/17 10:41:12;;;;;;;8.50;5.85;;;;;;;3.55;70.38;95904.03;5048750;28;20186;-69
2022/03/17 10:43:39;;;;;;;9.38;6.65;;;;;;;3.54;70.28;95900.66;5045010;28;20040;-69
2022/03/17 10:46:20;;;;;;;9.20;6.05;;;;;;;3.40;70.30;95884.91;5013828;28;20518;-68
2022/03/17 10:48:58;;;;;;;10.25;7.22;;;;;;;3.53;72.23;95911.78;5029885;28;20067;-69
2022/03/17 10:51:41;;;;;;;9.18;6.75;;;;;;;3.58;70.70;95904.75;5049556;28;20041;-68
2022/03/17 10:54:09;;;;;;;7.95;5.63;;;;;;;3.40;70.03;95912.31;5044135;28;20090;-69
2022/03/17 10:56:35;;;;;;;8.88;6.60;;;;;;;3.26;70.78;95897.41;5030618;28;20137;-69
2022/03/17 10:59:01;;;;;;;10.68;7.40;;;;;;;3.26;71.15;95903.41;5029124;28;20031;-70
2022/03/17 11:01:40;;;;;;;9.02;7.32;;;;;;;3.24;71.80;95912.91;5041089;28;20034;-69
2022/03/17 11:04:06;;;;;;;11.13;7.97;;;;;;;3.36;72.28;95912.44;5037736;28;20029;-69
2022/03/17 11:06:32;;;;;;;10.10;7.60;;;;;;;3.41;71.12;95901.16;5033878;28;20029;-69
2022/03/17 11:09:01;;;;;;;11.05;6.97;;;;;;;3.50;71.02;95905.94;5014000;28;20030;-69
2022/03/17 11:11:29;;;;;;;8.40;6.65;;;;;;;3.56;69.81;95903.97;5043865;28;20036;-68
2022/03/17 11:13:58;;;;;;;9.82;6.97;;;;;;;3.52;70.49;95902.44;5042443;28;20032;-69
2022/03/17 11:16:43;;;;;;;7.93;5.57;;;;;;;3.67;69.56;95907.88;5022730;28;20029;-68
2022/03/17 11:19:12;;;;;;;7.35;5.50;;;;;;;3.77;69.52;95904.06;5041125;28;20100;-68
2022/03/17 11:21:38;;;;;;;7.40;5.60;;;;;;;3.74;69.48;95899.88;5023832;28;20041;-69
2022/03/17 11:24:07;;;;;;;7.38;5.53;;;;;;;3.79;67.71;95905.69;5024036;28;20431;-68
2022/03/17 11:26:37;;;;;;;7.65;5.82;;;;;;;3.83;68.63;95898.69;5046238;28;20037;-68
2022/03/17 11:29:07;;;;;;;7.73;5.80;;;;;;;3.77;68.59;95909.19;5029231;28;20029;-68
2022/03/17 11:31:54;;;;;;;8.32;5.80;;;;;;;3.78;67.38;95903.97;5050651;28;20332;-69
2022/03/17 11:34:38;;;;;;;9.30;6.05;;;;;;;3.75;67.54;95916.13;5031926;28;20040;-69
2022/03/17 11:37:16;;;;;;;9.75;7.10;;;;;;;3.78;68.91;95900.59;5049880;28;20086;-69